Impacts TAF Board INFO
FOR SITUATIONAL AWARENESS. NOT TO BE USED FOR FLIGHT PLANNING PURPOSES.
IDs:

KASD - Slidell Arpt, LA, US

Issued at 1157 UTC 20 May 2018
Updated at 1215 UTC 20 May 2018
Potential Impact None Slight Moderate High
Time<<21/01Z 21/02Z 21/03Z 21/04Z 21/05Z 21/06Z 21/07Z 21/08Z 21/09Z 21/10Z 21/11Z 21/12Z 21/13Z>>
Type PRVL PRVL PRVL PRVL PRVL PRVL PRVL PRVL PRVL PRVL PRVL
VIS >6 >6 >6 >6 >6 >6 >6 >6 >6 >6 >6
CIG -- -- -- -- -- -- -- -- -- -- --
Cover SCT SCT SCT SCT SCT SCT SCT SCT SCT SCT SCT
FltCat VFR VFR VFR VFR VFR VFR VFR VFR VFR VFR VFR
WX VCTS -- -- -- -- -- -- -- -- -- --
WDir 140 VRB VRB VRB VRB VRB VRB VRB VRB VRB VRB
WSpd 5 0 0 0 0 0 0 0 0 0 0
WGst -- -- -- -- -- -- -- -- -- -- --

Raw TAF
KASD 201157Z 2012/2112 00000KT P6SM FEW017
  FM201900 14005KT P6SM VCTS FEW045CB SCT250
  FM210200 00000KT P6SM FEW030 SCT200


METAR Board
Radar Display
Forecast Discussion

FOR SITUATIONAL AWARENESS. NOT TO BE USED FOR FLIGHT PLANNING PURPOSES.